sensor_id;sensor_type;location;lat;lon;timestamp;pressure;altitude;pressure_sealevel;temperature;humidity
47750;BME280;49810;48.160;10.812;2022-10-31T00:01:11;95745.34;;;9.03;92.52
47750;BME280;49810;48.160;10.812;2022-10-31T00:03:40;95750.47;;;8.98;92.42
47750;BME280;49810;48.160;10.812;2022-10-31T00:06:08;95747.47;;;8.95;92.57
47750;BME280;49810;48.160;10.812;2022-10-31T00:08:36;95746.16;;;8.86;92.59
47750;BME280;49810;48.160;10.812;2022-10-31T00:11:08;95745.94;;;8.87;92.85
47750;BME280;49810;48.160;10.812;2022-10-31T00:13:36;95745.44;;;8.97;93.16
47750;BME280;49810;48.160;10.812;2022-10-31T00:16:05;95742.34;;;9.00;93.15
47750;BME280;49810;48.160;10.812;2022-10-31T00:18:34;95748.25;;;9.13;92.86
47750;BME280;49810;48.160;10.812;2022-10-31T00:21:03;95748.66;;;9.28;92.65
47750;BME280;49810;48.160;10.812;2022-10-31T00:23:31;95746.41;;;9.43;92.44
47750;BME280;49810;48.160;10.812;2022-10-31T00:26:00;95737.13;;;9.41;92.37
47750;BME280;49810;48.160;10.812;2022-10-31T00:28:33;95749.47;;;9.29;91.90
47750;BME280;49810;48.160;10.812;2022-10-31T00:31:02;95747.69;;;9.11;92.05
47750;BME280;49810;48.160;10.812;2022-10-31T00:33:32;95744.41;;;8.98;92.29
47750;BME280;49810;48.160;10.812;2022-10-31T00:36:02;95741.63;;;8.93;92.29
47750;BME280;49810;48.160;10.812;2022-10-31T00:38:30;95741.63;;;8.93;92.40
47750;BME280;49810;48.160;10.812;2022-10-31T00:40:59;95748.56;;;9.05;92.54
47750;BME280;49810;48.160;10.812;2022-10-31T00:43:27;95738.63;;;9.48;92.58
47750;BME280;49810;48.160;10.812;2022-10-31T00:45:55;95747.22;;;9.55;92.19
47750;BME280;49810;48.160;10.812;2022-10-31T00:48:24;95745.81;;;9.41;91.70
47750;BME280;49810;48.160;10.812;2022-10-31T00:50:52;95740.28;;;9.31;91.63
47750;BME280;49810;48.160;10.812;2022-10-31T00:53:23;95749.53;;;9.22;91.80
47750;BME280;49810;48.160;10.812;2022-10-31T00:55:51;95746.88;;;9.11;92.08
47750;BME280;49810;48.160;10.812;2022-10-31T00:58:20;95754.59;;;8.94;92.03
47750;BME280;49810;48.160;10.812;2022-10-31T01:00:48;95749.47;;;8.81;91.95
47750;BME280;49810;48.160;10.812;2022-10-31T01:03:22;95753.44;;;8.72;92.44
47750;BME280;49810;48.160;10.812;2022-10-31T01:05:58;95753.00;;;8.75;92.53
47750;BME280;49810;48.160;10.812;2022-10-31T01:08:28;95738.72;;;8.83;92.53
47750;BME280;49810;48.160;10.812;2022-10-31T01:11:01;95749.81;;;8.85;92.52
47750;BME280;49810;48.160;10.812;2022-10-31T01:13:29;95751.22;;;8.87;92.16
47750;BME280;49810;48.160;10.812;2022-10-31T01:15:58;95752.19;;;8.75;92.23
47750;BME280;49810;48.160;10.812;2022-10-31T01:18:27;95752.34;;;8.62;91.88
47750;BME280;49810;48.160;10.812;2022-10-31T01:21:00;95752.47;;;8.49;92.16
47750;BME280;49810;48.160;10.812;2022-10-31T01:23:30;95751.75;;;8.42;92.23
47750;BME280;49810;48.160;10.812;2022-10-31T01:26:04;95742.53;;;8.33;92.33
47750;BME280;49810;48.160;10.812;2022-10-31T01:28:33;95743.56;;;8.32;92.44
47750;BME280;49810;48.160;10.812;2022-10-31T01:31:03;95738.13;;;8.45;92.54
47750;BME280;49810;48.160;10.812;2022-10-31T01:33:33;95744.22;;;8.45;92.64
47750;BME280;49810;48.160;10.812;2022-10-31T01:36:11;95745.97;;;8.51;92.43
47750;BME280;49810;48.160;10.812;2022-10-31T01:38:40;95748.81;;;8.50;92.31
47750;BME280;49810;48.160;10.812;2022-10-31T01:41:09;95744.00;;;8.47;92.17
47750;BME280;49810;48.160;10.812;2022-10-31T01:43:56;95741.78;;;8.44;92.13
47750;BME280;49810;48.160;10.812;2022-10-31T01:46:27;95748.44;;;8.46;91.98
47750;BME280;49810;48.160;10.812;2022-10-31T01:48:59;95737.91;;;8.46;91.82
47750;BME280;49810;48.160;10.812;2022-10-31T01:51:30;95740.75;;;8.45;91.99
47750;BME280;49810;48.160;10.812;2022-10-31T01:54:06;95747.50;;;8.41;91.74
47750;BME280;49810;48.160;10.812;2022-10-31T01:56:39;95743.91;;;8.35;91.74
47750;BME280;49810;48.160;10.812;2022-10-31T01:59:11;95748.16;;;8.36;91.67
47750;BME280;49810;48.160;10.812;2022-10-31T02:01:41;95741.56;;;8.45;91.89
47750;BME280;49810;48.160;10.812;2022-10-31T02:04:10;95747.19;;;8.49;91.76
47750;BME280;49810;48.160;10.812;2022-10-31T02:06:54;95742.81;;;8.43;91.73
47750;BME280;49810;48.160;10.812;2022-10-31T02:09:25;95742.47;;;8.39;91.61
47750;BME280;49810;48.160;10.812;2022-10-31T02:11:56;95735.94;;;8.24;91.58
47750;BME280;49810;48.160;10.812;2022-10-31T02:14:27;95732.50;;;8.17;91.79
47750;BME280;49810;48.160;10.812;2022-10-31T02:16:56;95736.03;;;8.11;92.06
47750;BME280;49810;48.160;10.812;2022-10-31T02:19:30;95737.63;;;8.12;92.28
47750;BME280;49810;48.160;10.812;2022-10-31T02:22:05;95737.75;;;8.23;92.17
47750;BME280;49810;48.160;10.812;2022-10-31T02:24:45;95733.81;;;8.32;92.17
47750;BME280;49810;48.160;10.812;2022-10-31T02:27:43;95737.84;;;8.35;91.96
47750;BME280;49810;48.160;10.812;2022-10-31T02:30:18;95732.00;;;8.33;91.72
47750;BME280;49810;48.160;10.812;2022-10-31T02:32:55;95728.53;;;8.32;91.70
47750;BME280;49810;48.160;10.812;2022-10-31T02:35:37;95723.78;;;8.23;91.82
47750;BME280;49810;48.160;10.812;2022-10-31T02:38:19;95730.91;;;8.16;91.74
47750;BME280;49810;48.160;10.812;2022-10-31T02:40:54;95723.88;;;8.34;91.75
47750;BME280;49810;48.160;10.812;2022-10-31T02:43:43;95729.94;;;8.53;91.25
47750;BME280;49810;48.160;10.812;2022-10-31T02:46:24;95731.91;;;8.39;91.13
47750;BME280;49810;48.160;10.812;2022-10-31T02:49:00;95727.84;;;8.19;91.32
47750;BME280;49810;48.160;10.812;2022-10-31T02:51:31;95722.50;;;8.07;91.54
47750;BME280;49810;48.160;10.812;2022-10-31T02:53:59;95722.56;;;8.01;91.80
47750;BME280;49810;48.160;10.812;2022-10-31T02:56:27;95726.69;;;7.90;91.95
47750;BME280;49810;48.160;10.812;2022-10-31T02:58:58;95728.34;;;8.09;92.37
47750;BME280;49810;48.160;10.812;2022-10-31T03:01:44;95727.84;;;8.19;92.26
47750;BME280;49810;48.160;10.812;2022-10-31T03:04:46;95725.34;;;8.06;91.99
47750;BME280;49810;48.160;10.812;2022-10-31T03:07:24;95734.75;;;7.95;91.94
47750;BME280;49810;48.160;10.812;2022-10-31T03:10:04;95736.47;;;7.83;92.13
47750;BME280;49810;48.160;10.812;2022-10-31T03:12:39;95738.88;;;7.85;92.50
47750;BME280;49810;48.160;10.812;2022-10-31T03:15:19;95741.56;;;7.78;92.47
47750;BME280;49810;48.160;10.812;2022-10-31T03:17:54;95738.56;;;7.75;92.40
47750;BME280;49810;48.160;10.812;2022-10-31T03:20:28;95743.19;;;7.79;92.31
47750;BME280;49810;48.160;10.812;2022-10-31T03:22:59;95746.22;;;7.83;92.44
47750;BME280;49810;48.160;10.812;2022-10-31T03:25:29;95739.44;;;7.69;92.38
47750;BME280;49810;48.160;10.812;2022-10-31T03:28:01;95738.88;;;7.60;92.43
47750;BME280;49810;48.160;10.812;2022-10-31T03:30:33;95733.88;;;7.52;92.43
47750;BME280;49810;48.160;10.812;2022-10-31T03:33:07;95738.19;;;7.47;92.51
47750;BME280;49810;48.160;10.812;2022-10-31T03:35:41;95747.31;;;7.44;92.55
47750;BME280;49810;48.160;10.812;2022-10-31T03:38:11;95743.66;;;7.45;92.52
47750;BME280;49810;48.160;10.812;2022-10-31T03:40:43;95747.34;;;7.38;92.45
47750;BME280;49810;48.160;10.812;2022-10-31T03:43:16;95743.94;;;7.31;92.41
47750;BME280;49810;48.160;10.812;2022-10-31T03:45:52;95743.88;;;7.44;92.55
47750;BME280;49810;48.160;10.812;2022-10-31T03:48:20;95739.22;;;7.46;92.42
47750;BME280;49810;48.160;10.812;2022-10-31T03:51:02;95741.88;;;7.39;92.46
47750;BME280;49810;48.160;10.812;2022-10-31T03:53:36;95741.94;;;7.33;92.28
47750;BME280;49810;48.160;10.812;2022-10-31T03:56:09;95740.75;;;7.29;92.32
47750;BME280;49810;48.160;10.812;2022-10-31T03:58:46;95739.50;;;7.31;92.11
47750;BME280;49810;48.160;10.812;2022-10-31T04:01:18;95737.66;;;7.32;92.29
47750;BME280;49810;48.160;10.812;2022-10-31T04:03:48;95742.47;;;7.41;92.26
47750;BME280;49810;48.160;10.812;2022-10-31T04:06:20;95736.84;;;7.38;92.11
47750;BME280;49810;48.160;10.812;2022-10-31T04:08:51;95731.69;;;7.49;91.96
47750;BME280;49810;48.160;10.812;2022-10-31T04:11:24;95739.63;;;7.43;91.87
47750;BME280;49810;48.160;10.812;2022-10-31T04:14:13;95731.63;;;7.31;91.83
47750;BME280;49810;48.160;10.812;2022-10-31T04:16:43;95733.06;;;7.27;91.96
47750;BME280;49810;48.160;10.812;2022-10-31T04:19:12;95731.63;;;7.31;92.24
47750;BME280;49810;48.160;10.812;2022-10-31T04:21:42;95734.41;;;7.36;92.28
47750;BME280;49810;48.160;10.812;2022-10-31T04:24:11;95724.22;;;7.46;92.29
47750;BME280;49810;48.160;10.812;2022-10-31T04:26:40;95728.44;;;7.47;92.06
47750;BME280;49810;48.160;10.812;2022-10-31T04:29:08;95725.19;;;7.52;91.95
47750;BME280;49810;48.160;10.812;2022-10-31T04:31:37;95716.94;;;7.48;91.98
47750;BME280;49810;48.160;10.812;2022-10-31T04:34:06;95723.34;;;7.52;91.88
47750;BME280;49810;48.160;10.812;2022-10-31T04:36:34;95722.41;;;7.47;91.91
47750;BME280;49810;48.160;10.812;2022-10-31T04:39:04;95726.72;;;7.35;91.96
47750;BME280;49810;48.160;10.812;2022-10-31T04:41:47;95725.38;;;7.26;91.94
47750;BME280;49810;48.160;10.812;2022-10-31T04:44:17;95726.06;;;7.15;92.07
47750;BME280;49810;48.160;10.812;2022-10-31T04:46:49;95716.28;;;7.22;92.32
47750;BME280;49810;48.160;10.812;2022-10-31T04:49:17;95720.97;;;7.20;92.38
47750;BME280;49810;48.160;10.812;2022-10-31T04:51:46;95723.22;;;7.16;92.42
47750;BME280;49810;48.160;10.812;2022-10-31T04:54:17;95724.06;;;7.10;92.44
47750;BME280;49810;48.160;10.812;2022-10-31T04:57:03;95724.88;;;7.11;92.57
47750;BME280;49810;48.160;10.812;2022-10-31T04:59:31;95714.16;;;7.12;92.78
47750;BME280;49810;48.160;10.812;2022-10-31T05:02:00;95723.78;;;7.25;92.88
47750;BME280;49810;48.160;10.812;2022-10-31T05:04:48;95725.13;;;7.34;92.89
47750;BME280;49810;48.160;10.812;2022-10-31T05:07:17;95718.41;;;7.38;92.73
47750;BME280;49810;48.160;10.812;2022-10-31T05:09:47;95707.50;;;7.34;92.76
47750;BME280;49810;48.160;10.812;2022-10-31T05:12:17;95713.00;;;7.33;92.85
47750;BME280;49810;48.160;10.812;2022-10-31T05:15:22;95712.22;;;7.26;92.97
47750;BME280;49810;48.160;10.812;2022-10-31T05:18:18;95707.16;;;7.24;93.23
47750;BME280;49810;48.160;10.812;2022-10-31T05:20:52;95710.78;;;7.30;93.37
47750;BME280;49810;48.160;10.812;2022-10-31T05:23:33;95702.47;;;7.33;93.19
47750;BME280;49810;48.160;10.812;2022-10-31T05:26:04;95702.84;;;7.36;93.05
47750;BME280;49810;48.160;10.812;2022-10-31T05:28:33;95697.25;;;7.26;93.18
47750;BME280;49810;48.160;10.812;2022-10-31T05:31:03;95692.25;;;7.18;93.05
47750;BME280;49810;48.160;10.812;2022-10-31T05:33:31;95702.56;;;7.20;93.21
47750;BME280;49810;48.160;10.812;2022-10-31T05:36:08;95698.53;;;7.17;93.26
47750;BME280;49810;48.160;10.812;2022-10-31T05:38:55;95695.97;;;7.04;93.22
47750;BME280;49810;48.160;10.812;2022-10-31T05:41:28;95686.31;;;6.98;93.28
47750;BME280;49810;48.160;10.812;2022-10-31T05:44:12;95693.22;;;6.93;93.33
47750;BME280;49810;48.160;10.812;2022-10-31T05:46:56;95694.31;;;6.79;93.24
47750;BME280;49810;48.160;10.812;2022-10-31T05:49:33;95697.31;;;6.82;93.36
47750;BME280;49810;48.160;10.812;2022-10-31T05:52:01;95698.94;;;6.83;93.37
47750;BME280;49810;48.160;10.812;2022-10-31T05:54:37;95703.53;;;6.94;93.46
47750;BME280;49810;48.160;10.812;2022-10-31T05:57:07;95697.63;;;6.99;93.49
47750;BME280;49810;48.160;10.812;2022-10-31T05:59:35;95695.66;;;6.94;93.50
47750;BME280;49810;48.160;10.812;2022-10-31T06:02:03;95693.44;;;6.91;93.27
47750;BME280;49810;48.160;10.812;2022-10-31T06:05:01;95700.28;;;6.92;93.31
47750;BME280;49810;48.160;10.812;2022-10-31T06:07:34;95697.25;;;6.95;93.20
47750;BME280;49810;48.160;10.812;2022-10-31T06:10:05;95695.22;;;6.97;93.35
47750;BME280;49810;48.160;10.812;2022-10-31T06:12:35;95695.66;;;6.94;93.45
47750;BME280;49810;48.160;10.812;2022-10-31T06:15:15;95695.97;;;7.04;93.41
47750;BME280;49810;48.160;10.812;2022-10-31T06:17:58;95684.66;;;7.04;93.29
47750;BME280;49810;48.160;10.812;2022-10-31T06:20:28;95691.50;;;7.05;93.32
47750;BME280;49810;48.160;10.812;2022-10-31T06:23:02;95692.66;;;7.15;93.46
47750;BME280;49810;48.160;10.812;2022-10-31T06:25:32;95690.19;;;7.51;93.69
47750;BME280;49810;48.160;10.812;2022-10-31T06:28:03;95687.03;;;7.67;93.32
47750;BME280;49810;48.160;10.812;2022-10-31T06:31:04;95687.38;;;7.71;92.82
47750;BME280;49810;48.160;10.812;2022-10-31T06:33:32;95688.34;;;7.76;92.43
47750;BME280;49810;48.160;10.812;2022-10-31T06:36:01;95686.25;;;7.85;92.21
47750;BME280;49810;48.160;10.812;2022-10-31T06:38:29;95686.53;;;7.95;91.83
47750;BME280;49810;48.160;10.812;2022-10-31T06:41:02;95692.47;;;7.90;91.47
47750;BME280;49810;48.160;10.812;2022-10-31T06:43:39;95695.91;;;8.09;91.26
47750;BME280;49810;48.160;10.812;2022-10-31T06:46:29;95690.53;;;8.22;90.82
47750;BME280;49810;48.160;10.812;2022-10-31T06:49:12;95692.31;;;8.28;90.95
47750;BME280;49810;48.160;10.812;2022-10-31T06:51:47;95694.06;;;8.34;90.54
47750;BME280;49810;48.160;10.812;2022-10-31T06:54:16;95695.97;;;8.27;89.88
47750;BME280;49810;48.160;10.812;2022-10-31T06:56:45;95692.63;;;8.38;90.15
47750;BME280;49810;48.160;10.812;2022-10-31T06:59:15;95693.41;;;8.38;89.45
47750;BME280;49810;48.160;10.812;2022-10-31T07:02:05;95698.44;;;8.40;89.41
47750;BME280;49810;48.160;10.812;2022-10-31T07:04:33;95702.03;;;8.63;89.77
47750;BME280;49810;48.160;10.812;2022-10-31T07:07:02;95711.38;;;8.77;89.20
47750;BME280;49810;48.160;10.812;2022-10-31T07:09:31;95708.63;;;9.02;88.51
47750;BME280;49810;48.160;10.812;2022-10-31T07:12:02;95704.88;;;9.09;88.24
47750;BME280;49810;48.160;10.812;2022-10-31T07:14:35;95706.50;;;9.22;87.93
47750;BME280;49810;48.160;10.812;2022-10-31T07:17:03;95703.69;;;9.35;87.69
47750;BME280;49810;48.160;10.812;2022-10-31T07:19:35;95704.53;;;9.47;87.54
47750;BME280;49810;48.160;10.812;2022-10-31T07:22:04;95694.47;;;9.67;87.36
47750;BME280;49810;48.160;10.812;2022-10-31T07:24:33;95693.91;;;9.65;86.82
47750;BME280;49810;48.160;10.812;2022-10-31T07:27:35;95696.22;;;9.84;86.34
47750;BME280;49810;48.160;10.812;2022-10-31T07:30:11;95685.66;;;9.96;85.92
47750;BME280;49810;48.160;10.812;2022-10-31T07:32:40;95690.75;;;10.09;85.31
47750;BME280;49810;48.160;10.812;2022-10-31T07:35:10;95692.66;;;10.25;85.89
47750;BME280;49810;48.160;10.812;2022-10-31T07:37:46;95691.38;;;10.39;85.24
47750;BME280;49810;48.160;10.812;2022-10-31T07:40:15;95696.19;;;10.53;85.34
47750;BME280;49810;48.160;10.812;2022-10-31T07:42:46;95690.75;;;10.71;84.79
47750;BME280;49810;48.160;10.812;2022-10-31T07:45:35;95691.22;;;10.96;84.21
47750;BME280;49810;48.160;10.812;2022-10-31T07:48:22;95687.66;;;11.02;83.76
47750;BME280;49810;48.160;10.812;2022-10-31T07:51:09;95692.75;;;11.21;83.46
47750;BME280;49810;48.160;10.812;2022-10-31T07:54:09;95687.69;;;11.19;82.68
47750;BME280;49810;48.160;10.812;2022-10-31T07:56:37;95681.06;;;11.33;83.32
47750;BME280;49810;48.160;10.812;2022-10-31T07:59:06;95689.09;;;11.55;82.83
47750;BME280;49810;48.160;10.812;2022-10-31T08:01:35;95682.41;;;11.64;82.80
47750;BME280;49810;48.160;10.812;2022-10-31T08:04:22;95680.56;;;11.81;82.06
47750;BME280;49810;48.160;10.812;2022-10-31T08:07:21;95680.06;;;12.00;82.32
47750;BME280;49810;48.160;10.812;2022-10-31T08:09:57;95671.41;;;12.26;81.74
47750;BME280;49810;48.160;10.812;2022-10-31T08:12:29;95671.28;;;12.16;82.28
47750;BME280;49810;48.160;10.812;2022-10-31T08:14:57;95671.00;;;12.34;81.55
47750;BME280;49810;48.160;10.812;2022-10-31T08:17:26;95671.81;;;12.35;82.15
47750;BME280;49810;48.160;10.812;2022-10-31T08:19:59;95671.88;;;12.61;80.95
47750;BME280;49810;48.160;10.812;2022-10-31T08:22:32;95678.19;;;12.77;80.90
47750;BME280;49810;48.160;10.812;2022-10-31T08:25:09;95665.97;;;12.97;80.45
47750;BME280;49810;48.160;10.812;2022-10-31T08:27:38;95665.06;;;12.92;78.63
47750;BME280;49810;48.160;10.812;2022-10-31T08:30:13;95656.81;;;13.10;78.46
47750;BME280;49810;48.160;10.812;2022-10-31T08:32:59;95655.81;;;13.42;76.88
47750;BME280;49810;48.160;10.812;2022-10-31T08:35:46;95643.94;;;13.81;74.16
47750;BME280;49810;48.160;10.812;2022-10-31T08:38:41;95645.13;;;14.00;74.01
47750;BME280;49810;48.160;10.812;2022-10-31T08:41:10;95649.06;;;14.34;72.66
47750;BME280;49810;48.160;10.812;2022-10-31T08:43:38;95641.66;;;14.00;73.72
47750;BME280;49810;48.160;10.812;2022-10-31T08:46:06;95631.25;;;13.93;74.50
47750;BME280;49810;48.160;10.812;2022-10-31T08:48:37;95631.72;;;14.22;73.76
47750;BME280;49810;48.160;10.812;2022-10-31T08:51:06;95639.31;;;14.50;73.04
47750;BME280;49810;48.160;10.812;2022-10-31T08:53:34;95628.78;;;14.75;72.22
47750;BME280;49810;48.160;10.812;2022-10-31T08:56:23;95627.69;;;14.66;72.51
47750;BME280;49810;48.160;10.812;2022-10-31T08:58:52;95619.56;;;14.36;74.05
47750;BME280;49810;48.160;10.812;2022-10-31T09:01:30;95623.75;;;14.83;73.44
47750;BME280;49810;48.160;10.812;2022-10-31T09:03:59;95616.09;;;14.97;72.04
47750;BME280;49810;48.160;10.812;2022-10-31T09:06:28;95614.25;;;15.17;71.67
47750;BME280;49810;48.160;10.812;2022-10-31T09:08:59;95611.88;;;15.31;70.89
47750;BME280;49810;48.160;10.812;2022-10-31T09:11:27;95619.53;;;14.97;72.02
47750;BME280;49810;48.160;10.812;2022-10-31T09:14:17;95611.13;;;15.35;71.31
47750;BME280;49810;48.160;10.812;2022-10-31T09:17:14;95608.72;;;15.74;69.70
47750;BME280;49810;48.160;10.812;2022-10-31T09:20:04;95603.81;;;14.96;72.59
47750;BME280;49810;48.160;10.812;2022-10-31T09:22:34;95604.34;;;14.98;72.55
47750;BME280;49810;48.160;10.812;2022-10-31T09:25:02;95599.53;;;14.95;73.42
47750;BME280;49810;48.160;10.812;2022-10-31T09:27:31;95599.78;;;14.78;74.55
47750;BME280;49810;48.160;10.812;2022-10-31T09:29:59;95592.13;;;15.02;73.41
47750;BME280;49810;48.160;10.812;2022-10-31T09:32:28;95595.94;;;15.51;71.54
47750;BME280;49810;48.160;10.812;2022-10-31T09:34:56;95591.38;;;15.46;71.44
47750;BME280;49810;48.160;10.812;2022-10-31T09:37:25;95592.47;;;15.35;73.07
47750;BME280;49810;48.160;10.812;2022-10-31T09:39:53;95586.31;;;15.40;73.16
47750;BME280;49810;48.160;10.812;2022-10-31T09:42:44;95588.13;;;15.14;73.85
47750;BME280;49810;48.160;10.812;2022-10-31T09:45:26;95581.53;;;15.47;73.27
47750;BME280;49810;48.160;10.812;2022-10-31T09:48:18;95578.06;;;15.76;72.51
47750;BME280;49810;48.160;10.812;2022-10-31T09:51:09;95577.25;;;15.71;72.85
47750;BME280;49810;48.160;10.812;2022-10-31T09:53:43;95577.72;;;16.08;71.56
47750;BME280;49810;48.160;10.812;2022-10-31T09:56:18;95571.09;;;15.90;72.85
47750;BME280;49810;48.160;10.812;2022-10-31T09:58:50;95572.47;;;15.83;73.57
47750;BME280;49810;48.160;10.812;2022-10-31T10:01:32;95572.50;;;16.61;71.14
47750;BME280;49810;48.160;10.812;2022-10-31T10:04:09;95560.00;;;17.00;69.70
47750;BME280;49810;48.160;10.812;2022-10-31T10:06:56;95568.59;;;16.92;69.86
47750;BME280;49810;48.160;10.812;2022-10-31T10:09:45;95553.66;;;17.30;68.25
47750;BME280;49810;48.160;10.812;2022-10-31T10:12:49;95561.75;;;17.58;67.09
47750;BME280;49810;48.160;10.812;2022-10-31T10:15:39;95556.69;;;17.85;66.32
47750;BME280;49810;48.160;10.812;2022-10-31T10:18:21;95555.72;;;18.05;65.56
47750;BME280;49810;48.160;10.812;2022-10-31T10:20:59;95563.16;;;18.08;65.55
47750;BME280;49810;48.160;10.812;2022-10-31T10:23:39;95553.94;;;18.19;65.56
47750;BME280;49810;48.160;10.812;2022-10-31T10:26:17;95553.69;;;18.15;65.62
47750;BME280;49810;48.160;10.812;2022-10-31T10:28:49;95548.34;;;17.92;65.50
47750;BME280;49810;48.160;10.812;2022-10-31T10:31:22;95552.13;;;17.86;66.32
47750;BME280;49810;48.160;10.812;2022-10-31T10:34:00;95552.66;;;17.88;66.19
47750;BME280;49810;48.160;10.812;2022-10-31T10:36:35;95547.72;;;18.00;65.87
47750;BME280;49810;48.160;10.812;2022-10-31T10:39:11;95539.44;;;17.73;66.60
47750;BME280;49810;48.160;10.812;2022-10-31T10:41:47;95542.56;;;18.08;65.54
47750;BME280;49810;48.160;10.812;2022-10-31T10:44:29;95533.19;;;18.34;65.31
47750;BME280;49810;48.160;10.812;2022-10-31T10:47:15;95527.13;;;17.72;67.18
47750;BME280;49810;48.160;10.812;2022-10-31T10:50:03;95527.63;;;18.02;66.29
47750;BME280;49810;48.160;10.812;2022-10-31T10:52:40;95523.66;;;17.43;68.67
47750;BME280;49810;48.160;10.812;2022-10-31T10:55:24;95522.81;;;17.76;67.63
47750;BME280;49810;48.160;10.812;2022-10-31T10:57:59;95520.72;;;17.73;67.71
47750;BME280;49810;48.160;10.812;2022-10-31T11:00:31;95517.25;;;18.19;65.83
47750;BME280;49810;48.160;10.812;2022-10-31T11:03:00;95518.22;;;17.81;67.12
47750;BME280;49810;48.160;10.812;2022-10-31T11:05:35;95515.59;;;17.76;67.49
47750;BME280;49810;48.160;10.812;2022-10-31T11:08:04;95516.47;;;18.42;65.13
47750;BME280;49810;48.160;10.812;2022-10-31T11:10:33;95510.69;;;18.35;65.11
47750;BME280;49810;48.160;10.812;2022-10-31T11:13:17;95517.09;;;19.13;65.82
47750;BME280;49810;48.160;10.812;2022-10-31T11:15:51;95508.66;;;17.47;71.85
47750;BME280;49810;48.160;10.812;2022-10-31T11:18:24;95505.63;;;18.29;69.79
47750;BME280;49810;48.160;10.812;2022-10-31T11:20:54;95503.25;;;18.69;67.57
47750;BME280;49810;48.160;10.812;2022-10-31T11:23:24;95496.72;;;19.31;65.54
47750;BME280;49810;48.160;10.812;2022-10-31T11:25:55;95503.63;;;19.18;65.63
47750;BME280;49810;48.160;10.812;2022-10-31T11:28:25;95501.53;;;18.78;67.35
47750;BME280;49810;48.160;10.812;2022-10-31T11:30:57;95494.06;;;18.94;65.79
47750;BME280;49810;48.160;10.812;2022-10-31T11:33:29;95491.41;;;18.10;69.46
47750;BME280;49810;48.160;10.812;2022-10-31T11:35:59;95485.97;;;17.68;70.58
47750;BME280;49810;48.160;10.812;2022-10-31T11:38:33;95501.78;;;18.16;69.76
47750;BME280;49810;48.160;10.812;2022-10-31T11:41:09;95506.81;;;17.04;73.47
47750;BME280;49810;48.160;10.812;2022-10-31T11:43:53;95498.78;;;18.65;68.06
47750;BME280;49810;48.160;10.812;2022-10-31T11:46:27;95488.13;;;19.34;65.85
47750;BME280;49810;48.160;10.812;2022-10-31T11:48:58;95479.13;;;19.43;65.39
47750;BME280;49810;48.160;10.812;2022-10-31T11:51:30;95477.63;;;20.24;62.76
47750;BME280;49810;48.160;10.812;2022-10-31T11:54:01;95484.22;;;18.29;68.55
47750;BME280;49810;48.160;10.812;2022-10-31T11:56:37;95471.13;;;18.69;67.01
47750;BME280;49810;48.160;10.812;2022-10-31T11:59:22;95471.44;;;19.96;63.82
47750;BME280;49810;48.160;10.812;2022-10-31T12:01:52;95463.78;;;20.03;63.61
47750;BME280;49810;48.160;10.812;2022-10-31T12:04:32;95463.06;;;20.65;61.18
47750;BME280;49810;48.160;10.812;2022-10-31T12:07:01;95462.72;;;20.80;59.89
47750;BME280;49810;48.160;10.812;2022-10-31T12:09:33;95451.72;;;22.00;56.57
47750;BME280;49810;48.160;10.812;2022-10-31T12:12:14;95449.91;;;21.13;59.15
47750;BME280;49810;48.160;10.812;2022-10-31T12:14:56;95461.31;;;19.93;61.64
47750;BME280;49810;48.160;10.812;2022-10-31T12:17:33;95441.34;;;22.33;55.52
47750;BME280;49810;48.160;10.812;2022-10-31T12:20:12;95449.28;;;21.16;58.79
47750;BME280;49810;48.160;10.812;2022-10-31T12:22:49;95445.38;;;21.00;59.15
47750;BME280;49810;48.160;10.812;2022-10-31T12:25:28;95442.81;;;18.82;66.10
47750;BME280;49810;48.160;10.812;2022-10-31T12:28:11;95437.81;;;18.75;66.92
47750;BME280;49810;48.160;10.812;2022-10-31T12:30:55;95433.06;;;19.23;65.36
47750;BME280;49810;48.160;10.812;2022-10-31T12:33:47;95421.66;;;21.02;60.09
47750;BME280;49810;48.160;10.812;2022-10-31T12:36:32;95426.03;;;22.03;55.81
47750;BME280;49810;48.160;10.812;2022-10-31T12:39:19;95422.78;;;20.87;59.85
47750;BME280;49810;48.160;10.812;2022-10-31T12:41:51;95420.34;;;19.74;63.60
47750;BME280;49810;48.160;10.812;2022-10-31T12:44:50;95414.81;;;20.47;61.41
47750;BME280;49810;48.160;10.812;2022-10-31T12:47:35;95421.53;;;19.82;64.03
47750;BME280;49810;48.160;10.812;2022-10-31T12:50:20;95415.31;;;19.08;65.65
47750;BME280;49810;48.160;10.812;2022-10-31T12:52:59;95423.28;;;18.44;68.62
47750;BME280;49810;48.160;10.812;2022-10-31T12:55:40;95410.00;;;20.22;62.80
47750;BME280;49810;48.160;10.812;2022-10-31T12:58:17;95399.75;;;19.56;64.90
47750;BME280;49810;48.160;10.812;2022-10-31T13:00:50;95407.28;;;18.16;69.50
47750;BME280;49810;48.160;10.812;2022-10-31T13:03:26;95393.69;;;18.31;68.97
47750;BME280;49810;48.160;10.812;2022-10-31T13:06:01;95392.16;;;19.31;66.22
47750;BME280;49810;48.160;10.812;2022-10-31T13:08:35;95394.81;;;19.63;64.72
47750;BME280;49810;48.160;10.812;2022-10-31T13:11:08;95381.63;;;20.65;61.63
47750;BME280;49810;48.160;10.812;2022-10-31T13:13:41;95379.81;;;20.74;61.28
47750;BME280;49810;48.160;10.812;2022-10-31T13:16:14;95374.41;;;20.87;60.64
47750;BME280;49810;48.160;10.812;2022-10-31T13:18:47;95376.88;;;23.30;54.33
47750;BME280;49810;48.160;10.812;2022-10-31T13:21:19;95367.94;;;24.91;49.20
47750;BME280;49810;48.160;10.812;2022-10-31T13:23:50;95370.56;;;23.63;51.24
47750;BME280;49810;48.160;10.812;2022-10-31T13:26:31;95366.09;;;22.70;54.22
47750;BME280;49810;48.160;10.812;2022-10-31T13:29:09;95365.03;;;23.60;51.94
47750;BME280;49810;48.160;10.812;2022-10-31T13:31:41;95368.50;;;24.56;49.85
47750;BME280;49810;48.160;10.812;2022-10-31T13:34:19;95359.91;;;23.21;53.03
47750;BME280;49810;48.160;10.812;2022-10-31T13:36:56;95359.66;;;23.89;51.04